Time;durP1;ratioP1;P1;durP2;ratioP2;P2;SDS_P1;SDS_P2;PMS_P1;PMS_P2;Temp;Humidity;BMP_temperature;BMP_pressure;BME280_temperature;BME280_humidity;BME280_pressure;Samples;Min_cycle;Max_cycle;Signal;HPM_P1;HPM_P2
2023/02/24 00:01:27;;;;;;;13.43;3.03;;;4.30;99.90;;;;;;4859610;29;20797;-85
2023/02/24 00:03:59;;;;;;;27.47;4.17;;;4.20;99.90;;;;;;4857606;29;20519;-87
2023/02/24 00:06:39;;;;;;;20.57;2.87;;;4.20;99.90;;;;;;4865170;29;20187;-82
2023/02/24 00:09:08;;;;;;;12.30;3.37;;;4.20;99.90;;;;;;4858516;29;20188;-83
2023/02/24 00:11:39;;;;;;;22.43;2.63;;;4.20;99.90;;;;;;4863249;29;20625;-80
2023/02/24 00:14:06;;;;;;;15.60;2.50;;;4.20;99.90;;;;;;4851671;29;20216;-78
2023/02/24 00:16:33;;;;;;;19.47;2.50;;;4.30;99.90;;;;;;4872332;29;20188;-80
2023/02/24 00:18:59;;;;;;;15.60;2.27;;;4.20;99.90;;;;;;4879811;29;20220;-79
2023/02/24 00:21:27;;;;;;;13.50;2.63;;;4.30;99.90;;;;;;4881874;29;20212;-80
2023/02/24 00:23:53;;;;;;;16.67;2.57;;;4.30;99.90;;;;;;4880707;29;20184;-79
2023/02/24 00:26:18;;;;;;;12.27;2.63;;;4.30;99.90;;;;;;4881546;29;20179;-84
2023/02/24 00:28:45;;;;;;;14.67;3.10;;;4.20;99.90;;;;;;4867015;29;20185;-83
2023/02/24 00:31:14;;;;;;;17.47;2.67;;;4.20;99.90;;;;;;4865970;29;20194;-79
2023/02/24 00:33:41;;;;;;;15.97;2.90;;;4.10;99.90;;;;;;4879585;29;20172;-79
2023/02/24 00:36:08;;;;;;;17.20;2.33;;;4.10;99.90;;;;;;4881401;29;20179;-79
2023/02/24 00:38:36;;;;;;;10.73;2.03;;;4.00;99.90;;;;;;4879724;29;20228;-78
2023/02/24 00:41:16;;;;;;;17.77;2.90;;;4.00;99.90;;;;;;4880183;29;20553;-78
2023/02/24 00:43:46;;;;;;;17.10;3.00;;;4.00;99.90;;;;;;4873233;29;20538;-79
2023/02/24 00:46:17;;;;;;;21.43;2.57;;;4.00;99.90;;;;;;4863125;29;20573;-78
2023/02/24 00:48:47;;;;;;;17.20;2.60;;;3.90;99.90;;;;;;4878595;29;20637;-79
2023/02/24 00:51:22;;;;;;;17.10;2.20;;;3.90;99.90;;;;;;4862666;29;20184;-78
2023/02/24 00:53:54;;;;;;;11.57;2.73;;;3.90;99.90;;;;;;4876152;29;20187;-78
2023/02/24 00:56:21;;;;;;;13.90;2.73;;;3.90;99.90;;;;;;4874165;29;20207;-80
2023/02/24 00:58:47;;;;;;;23.03;2.63;;;3.90;99.90;;;;;;4862403;29;20929;-78
2023/02/24 01:01:18;;;;;;;19.67;2.50;;;3.80;99.90;;;;;;4849503;29;20188;-78
2023/02/24 01:03:45;;;;;;;17.63;2.10;;;3.90;99.90;;;;;;4865898;29;20184;-78
2023/02/24 01:06:12;;;;;;;15.43;2.80;;;3.80;99.90;;;;;;4848394;29;20205;-79
2023/02/24 01:08:41;;;;;;;13.10;2.37;;;3.90;99.90;;;;;;4871288;29;20188;-79
2023/02/24 01:13:53;;;;;;;22.97;2.53;;;3.80;99.90;;;;;;4876923;29;20236;-78
2023/02/24 01:16:19;;;;;;;12.93;2.70;;;3.80;99.90;;;;;;4867702;29;20259;-79
2023/02/24 01:18:48;;;;;;;19.27;2.63;;;3.80;99.90;;;;;;4863112;29;20315;-78
2023/02/24 01:21:18;;;;;;;11.43;2.40;;;3.80;99.90;;;;;;4865754;29;20179;-79
2023/02/24 01:23:49;;;;;;;17.13;2.70;;;3.80;99.90;;;;;;4866288;29;20684;-79
2023/02/24 01:26:16;;;;;;;18.03;2.33;;;3.80;99.90;;;;;;4865568;29;20708;-79
2023/02/24 01:28:45;;;;;;;18.33;2.33;;;3.80;99.90;;;;;;4861857;29;20569;-79
2023/02/24 01:31:15;;;;;;;12.00;2.43;;;3.80;99.90;;;;;;4863031;29;20704;-79
2023/02/24 01:33:44;;;;;;;17.50;2.33;;;3.80;99.90;;;;;;4865595;29;20188;-79
2023/02/24 01:36:22;;;;;;;15.03;2.63;;;3.80;99.90;;;;;;4868354;29;20557;-78
2023/02/24 01:38:48;;;;;;;12.23;2.10;;;3.90;99.90;;;;;;4849607;29;20559;-79
2023/02/24 01:41:26;;;;;;;16.77;2.87;;;3.90;99.90;;;;;;4867814;29;20183;-79
2023/02/24 01:44:00;;;;;;;14.63;3.00;;;3.90;99.90;;;;;;4864547;29;20525;-79
2023/02/24 01:46:38;;;;;;;28.23;2.97;;;3.90;99.90;;;;;;4868655;29;20557;-79
2023/02/24 01:49:14;;;;;;;20.70;2.43;;;3.90;99.90;;;;;;4880067;29;20227;-79
2023/02/24 01:51:46;;;;;;;10.17;1.87;;;3.90;99.90;;;;;;4879706;29;20235;-80
2023/02/24 01:54:16;;;;;;;16.83;2.57;;;3.90;99.90;;;;;;4879811;29;20658;-79
2023/02/24 01:56:43;;;;;;;19.27;2.20;;;3.90;99.90;;;;;;4873683;29;20208;-80
2023/02/24 01:59:09;;;;;;;13.83;2.40;;;3.90;99.90;;;;;;4861221;29;20268;-78
2023/02/24 02:01:39;;;;;;;17.33;2.30;;;3.90;99.90;;;;;;4864626;29;20200;-79
2023/02/24 02:04:20;;;;;;;18.90;2.17;;;3.90;99.90;;;;;;4879477;29;20179;-78
2023/02/24 02:06:47;;;;;;;16.93;2.50;;;3.90;99.90;;;;;;4870047;29;20405;-78
2023/02/24 02:09:14;;;;;;;13.23;2.33;;;4.00;99.90;;;;;;4860690;29;20192;-79
2023/02/24 02:11:41;;;;;;;15.57;2.23;;;3.90;99.90;;;;;;4861009;29;20184;-79
2023/02/24 02:14:08;;;;;;;21.97;2.67;;;3.90;99.90;;;;;;4860734;29;20268;-79
2023/02/24 02:16:41;;;;;;;21.50;2.30;;;3.90;99.90;;;;;;4870431;29;20195;-80
2023/02/24 02:19:35;;;;;;;14.97;2.40;;;3.90;99.90;;;;;;4879019;29;20818;-78
2023/02/24 02:22:06;;;;;;;13.47;2.57;;;3.90;99.90;;;;;;4865779;29;20189;-79
2023/02/24 02:24:49;;;;;;;16.97;2.43;;;3.90;99.90;;;;;;4873978;29;20220;-79
2023/02/24 02:27:28;;;;;;;11.83;2.20;;;4.00;99.90;;;;;;4879709;29;20255;-79
2023/02/24 02:30:30;;;;;;;10.77;2.43;;;3.90;99.90;;;;;;4861964;29;20243;-81
2023/02/24 02:33:26;;;;;;;16.37;3.13;;;4.00;99.90;;;;;;4876354;29;20184;-79
2023/02/24 02:36:18;;;;;;;19.67;2.73;;;3.90;99.90;;;;;;4861009;29;20196;-78
2023/02/24 02:38:53;;;;;;;12.90;2.03;;;3.90;99.90;;;;;;4860742;29;20231;-80
2023/02/24 02:41:41;;;;;;;14.27;2.30;;;3.90;99.90;;;;;;4860991;29;20174;-78
2023/02/24 02:44:21;;;;;;;16.43;2.47;;;3.90;99.90;;;;;;4871151;29;20195;-79
2023/02/24 02:47:18;;;;;;;11.97;2.10;;;3.90;99.90;;;;;;4878861;29;20611;-79
2023/02/24 02:49:50;;;;;;;12.17;2.80;;;3.90;99.90;;;;;;4878705;29;20207;-79
2023/02/24 02:52:25;;;;;;;10.73;2.23;;;3.90;99.90;;;;;;4878790;29;20222;-80
2023/02/24 02:55:02;;;;;;;8.77;1.83;;;3.90;99.90;;;;;;4877357;29;20282;-78
2023/02/24 02:57:30;;;;;;;14.03;2.53;;;3.90;99.90;;;;;;4879191;29;20208;-82
2023/02/24 03:00:11;;;;;;;13.87;2.20;;;3.90;99.90;;;;;;4862910;29;20566;-78
2023/02/24 03:02:42;;;;;;;16.20;2.23;;;3.90;99.90;;;;;;4844233;29;20192;-78
2023/02/24 03:05:16;;;;;;;8.03;2.27;;;3.80;99.90;;;;;;4861653;29;20212;-79
2023/02/24 03:07:45;;;;;;;7.97;1.70;;;3.80;99.90;;;;;;4844322;29;20229;-79
2023/02/24 03:10:19;;;;;;;13.97;2.37;;;3.80;99.90;;;;;;4859848;29;20219;-78
2023/02/24 03:12:50;;;;;;;15.90;2.40;;;3.80;99.90;;;;;;4862849;29;20190;-78
2023/02/24 03:15:19;;;;;;;11.90;2.00;;;3.80;99.90;;;;;;4860289;29;20177;-78
2023/02/24 03:17:47;;;;;;;15.83;1.97;;;3.80;99.90;;;;;;5298037;23;20273;-78
2023/02/24 03:20:21;;;;;;;15.43;2.20;;;3.80;99.90;;;;;;4895784;29;20263;-78
2023/02/24 03:23:30;;;;;;;11.37;2.40;;;3.80;99.90;;;;;;4899263;29;20194;-80
2023/02/24 03:26:22;;;;;;;8.37;1.67;;;3.80;99.90;;;;;;4897215;29;20195;-78
2023/02/24 03:29:01;;;;;;;18.80;2.13;;;3.80;99.90;;;;;;4890416;29;20224;-78
2023/02/24 03:31:36;;;;;;;8.83;1.80;;;3.80;99.90;;;;;;4880998;29;20187;-78
2023/02/24 03:34:09;;;;;;;12.23;2.40;;;3.80;99.90;;;;;;4887770;29;20204;-78
2023/02/24 03:36:35;;;;;;;10.97;2.30;;;3.80;99.90;;;;;;4890846;29;20287;-78
2023/02/24 03:39:01;;;;;;;15.50;2.30;;;3.80;99.90;;;;;;4881880;29;20687;-79
2023/02/24 03:41:38;;;;;;;7.53;1.50;;;3.80;99.90;;;;;;4889853;29;20184;-78
2023/02/24 03:44:06;;;;;;;10.97;2.00;;;3.70;99.90;;;;;;4900479;29;20717;-80
2023/02/24 03:46:33;;;;;;;8.90;1.43;;;3.70;99.90;;;;;;4900165;29;20175;-78
2023/02/24 03:49:15;;;;;;;12.60;1.87;;;3.70;99.90;;;;;;4900371;29;20180;-79
2023/02/24 03:51:43;;;;;;;10.23;2.10;;;3.70;99.90;;;;;;4889293;29;20566;-78
2023/02/24 03:54:41;;;;;;;9.50;2.10;;;3.70;99.90;;;;;;4898280;29;20187;-79
2023/02/24 03:57:54;;;;;;;17.10;1.57;;;3.70;99.90;;;;;;4899939;29;20183;-78
2023/02/24 04:00:33;;;;;;;6.40;1.63;;;3.70;99.90;;;;;;4889718;29;20661;-78
2023/02/24 04:03:24;;;;;;;8.00;1.40;;;3.60;99.90;;;;;;4885160;29;20183;-78
2023/02/24 04:06:08;;;;;;;5.97;1.87;;;3.60;99.90;;;;;;4880783;29;20218;-78
2023/02/24 04:08:48;;;;;;;7.13;1.53;;;3.60;99.90;;;;;;4881515;29;20184;-78
2023/02/24 04:11:42;;;;;;;10.10;1.53;;;3.60;99.90;;;;;;4885878;29;20572;-78
2023/02/24 04:14:17;;;;;;;6.50;1.50;;;3.60;99.90;;;;;;4899355;29;20183;-78
2023/02/24 04:16:51;;;;;;;8.90;1.87;;;3.60;99.90;;;;;;4899296;29;20190;-78
2023/02/24 04:19:20;;;;;;;9.33;1.27;;;3.60;99.90;;;;;;4897389;29;20596;-78
2023/02/24 04:21:47;;;;;;;5.03;1.70;;;3.60;99.90;;;;;;4900636;29;20194;-79
2023/02/24 04:24:16;;;;;;;8.57;1.80;;;3.60;99.90;;;;;;4899400;29;20191;-78
2023/02/24 04:26:46;;;;;;;10.60;1.30;;;3.60;99.90;;;;;;4900148;29;20715;-78
2023/02/24 04:29:19;;;;;;;11.97;1.80;;;3.60;99.90;;;;;;4896157;29;20187;-78
2023/02/24 04:31:50;;;;;;;12.87;1.60;;;3.60;99.90;;;;;;4881272;29;20168;-78
2023/02/24 04:34:18;;;;;;;5.17;1.30;;;3.60;99.90;;;;;;4884357;29;20270;-78
2023/02/24 04:36:48;;;;;;;9.93;1.40;;;3.60;99.90;;;;;;4900434;29;20180;-78
2023/02/24 04:39:19;;;;;;;9.70;1.43;;;3.60;99.90;;;;;;4899112;29;20230;-79
2023/02/24 04:41:48;;;;;;;9.03;1.37;;;3.60;99.90;;;;;;4900159;29;20214;-78
2023/02/24 04:44:19;;;;;;;7.37;1.30;;;3.60;99.90;;;;;;4897963;29;20690;-77
2023/02/24 04:46:48;;;;;;;6.27;1.47;;;3.60;99.90;;;;;;4880093;29;20204;-77
2023/02/24 04:49:15;;;;;;;6.83;1.40;;;3.60;99.90;;;;;;4887766;29;20248;-78
2023/02/24 04:51:44;;;;;;;9.03;1.40;;;3.60;99.90;;;;;;4899445;29;20279;-78
2023/02/24 04:54:14;;;;;;;12.03;1.90;;;3.60;99.90;;;;;;4897260;29;20194;-77
2023/02/24 04:56:40;;;;;;;9.63;1.87;;;3.60;99.90;;;;;;4899027;29;20187;-78
2023/02/24 04:59:09;;;;;;;9.73;1.70;;;3.60;99.90;;;;;;4899046;29;20522;-82
2023/02/24 05:01:38;;;;;;;9.90;2.37;;;3.60;99.90;;;;;;4897104;29;20199;-79
2023/02/24 05:04:07;;;;;;;11.13;1.83;;;3.60;99.90;;;;;;4899205;29;20206;-78
2023/02/24 05:06:34;;;;;;;6.37;2.00;;;3.60;99.90;;;;;;4899915;29;20211;-78
2023/02/24 05:09:12;;;;;;;6.80;1.80;;;3.60;99.90;;;;;;4898504;29;20191;-78
2023/02/24 05:11:42;;;;;;;12.30;2.10;;;3.60;99.90;;;;;;4899011;29;20179;-79
2023/02/24 05:14:15;;;;;;;11.77;2.07;;;3.60;99.90;;;;;;4898322;29;20195;-80
2023/02/24 05:16:42;;;;;;;9.43;1.73;;;3.60;99.90;;;;;;4899490;29;20168;-77
2023/02/24 05:21:57;;;;;;;9.67;1.63;;;3.60;99.90;;;;;;4898489;29;20239;-78
2023/02/24 05:24:24;;;;;;;13.80;2.47;;;3.50;99.90;;;;;;4897798;29;20187;-78
2023/02/24 05:26:56;;;;;;;8.77;1.70;;;3.60;99.90;;;;;;4897967;29;20203;-78
2023/02/24 05:29:24;;;;;;;15.37;1.80;;;3.60;99.90;;;;;;4883117;29;20636;-77
2023/02/24 05:31:52;;;;;;;8.40;1.73;;;3.60;99.90;;;;;;4880155;29;20263;-78
2023/02/24 05:34:19;;;;;;;15.03;1.87;;;3.60;99.90;;;;;;4893054;29;20583;-77
2023/02/24 05:36:45;;;;;;;10.10;1.60;;;3.60;99.90;;;;;;4899041;29;20222;-78
2023/02/24 05:39:17;;;;;;;10.07;1.90;;;3.50;99.90;;;;;;4897322;29;20309;-77
2023/02/24 05:41:44;;;;;;;13.70;1.87;;;3.60;99.90;;;;;;4898862;29;20595;-78
2023/02/24 05:44:12;;;;;;;12.47;1.80;;;3.50;99.90;;;;;;4888147;29;20196;-77
2023/02/24 05:46:40;;;;;;;7.50;1.40;;;3.60;99.90;;;;;;4898191;29;20191;-78
2023/02/24 05:49:15;;;;;;;8.50;1.40;;;3.50;99.90;;;;;;4890914;29;20199;-78
2023/02/24 05:51:53;;;;;;;7.27;1.50;;;3.50;99.90;;;;;;4879961;29;20191;-78
2023/02/24 05:54:19;;;;;;;9.77;1.60;;;3.50;99.90;;;;;;4880795;29;20246;-79
2023/02/24 05:56:45;;;;;;;7.83;1.47;;;3.50;99.90;;;;;;4898132;29;20188;-78
2023/02/24 05:59:16;;;;;;;5.00;1.30;;;3.50;99.90;;;;;;4894164;29;20235;-77
2023/02/24 06:01:44;;;;;;;11.13;1.57;;;3.50;99.90;;;;;;4879686;29;20183;-77
2023/02/24 06:04:19;;;;;;;7.97;1.80;;;3.50;99.90;;;;;;4888934;29;20197;-78
2023/02/24 06:06:51;;;;;;;4.40;1.27;;;3.40;99.90;;;;;;4898889;29;20174;-78
2023/02/24 06:09:18;;;;;;;8.77;1.30;;;3.40;99.90;;;;;;4897343;29;20195;-78
2023/02/24 06:11:44;;;;;;;7.50;1.50;;;3.40;99.90;;;;;;4880104;29;20240;-79
2023/02/24 06:14:11;;;;;;;5.03;1.43;;;3.40;99.90;;;;;;4887236;29;20195;-78
2023/02/24 06:16:39;;;;;;;8.03;1.53;;;3.40;99.90;;;;;;4897946;29;20490;-80
2023/02/24 06:19:06;;;;;;;10.57;1.33;;;3.40;99.90;;;;;;4895785;29;20227;-77
2023/02/24 06:21:34;;;;;;;5.53;1.30;;;3.40;99.90;;;;;;4898407;29;20171;-76
2023/02/24 06:24:00;;;;;;;7.17;1.53;;;3.40;99.90;;;;;;4897385;29;20274;-76
2023/02/24 06:26:28;;;;;;;13.70;1.57;;;3.40;99.90;;;;;;4889504;29;20259;-77
2023/02/24 06:28:57;;;;;;;7.33;1.60;;;3.30;99.90;;;;;;4882698;29;20278;-76
2023/02/24 06:31:23;;;;;;;9.03;1.20;;;3.40;99.90;;;;;;4880243;29;20274;-77
2023/02/24 06:33:52;;;;;;;6.50;1.30;;;3.30;99.90;;;;;;4890350;29;20290;-78
2023/02/24 06:36:18;;;;;;;7.00;1.40;;;3.40;99.90;;;;;;4886023;29;20194;-76
2023/02/24 06:38:44;;;;;;;6.93;1.07;;;3.40;99.90;;;;;;4881424;29;20674;-77
2023/02/24 06:41:11;;;;;;;6.13;1.47;;;3.40;99.90;;;;;;4879563;29;20239;-77
2023/02/24 06:43:45;;;;;;;4.33;0.83;;;3.40;99.90;;;;;;4881364;29;20176;-76
2023/02/24 06:46:14;;;;;;;6.10;1.30;;;3.30;99.90;;;;;;4887378;29;20266;-76
2023/02/24 06:48:40;;;;;;;9.30;2.00;;;3.30;99.90;;;;;;4879720;29;20184;-76
2023/02/24 06:51:14;;;;;;;5.17;1.23;;;3.30;99.90;;;;;;4880596;29;20274;-81
2023/02/24 06:53:44;;;;;;;6.40;1.50;;;3.30;99.90;;;;;;4898347;29;20231;-76
2023/02/24 06:56:16;;;;;;;8.97;1.60;;;3.30;99.90;;;;;;4887594;29;20526;-76
2023/02/24 06:58:54;;;;;;;9.10;1.80;;;3.30;99.90;;;;;;4882909;29;20239;-77
2023/02/24 07:01:25;;;;;;;6.70;1.50;;;3.40;99.90;;;;;;4896736;29;20619;-77
2023/02/24 07:04:02;;;;;;;7.60;1.13;;;3.40;99.90;;;;;;4901722;29;20194;-77
2023/02/24 07:06:30;;;;;;;9.37;1.30;;;3.40;99.90;;;;;;4902435;29;20175;-76
2023/02/24 07:08:57;;;;;;;10.20;1.67;;;3.40;99.90;;;;;;4901846;29;20274;-77
2023/02/24 07:11:23;;;;;;;6.77;1.40;;;3.40;99.90;;;;;;4886687;29;20187;-76
2023/02/24 07:13:49;;;;;;;4.77;1.40;;;3.40;99.90;;;;;;4898759;29;20191;-78
2023/02/24 07:16:23;;;;;;;9.83;1.10;;;3.40;99.90;;;;;;4901391;29;20190;-78
2023/02/24 07:18:56;;;;;;;5.70;1.17;;;3.40;99.90;;;;;;4901319;29;20242;-77
2023/02/24 07:21:23;;;;;;;8.50;1.30;;;3.40;99.90;;;;;;4883179;29;20192;-76
2023/02/24 07:23:55;;;;;;;3.37;1.30;;;3.40;99.90;;;;;;4882814;29;20168;-77
2023/02/24 07:26:25;;;;;;;8.07;1.53;;;3.40;99.90;;;;;;4881375;29;20259;-77
2023/02/24 07:28:53;;;;;;;8.27;1.30;;;3.40;99.90;;;;;;4882941;29;20175;-77
2023/02/24 07:31:22;;;;;;;8.40;1.30;;;3.40;99.90;;;;;;4882757;29;20259;-78
2023/02/24 07:33:51;;;;;;;8.13;0.97;;;3.50;99.90;;;;;;4882622;29;20179;-77
2023/02/24 07:36:22;;;;;;;7.83;1.20;;;3.50;99.90;;;;;;4881297;29;20214;-78
2023/02/24 07:38:52;;;;;;;6.43;1.27;;;3.40;99.90;;;;;;4882154;29;20220;-78
2023/02/24 07:41:21;;;;;;;7.63;1.40;;;3.40;99.90;;;;;;4897951;29;20238;-79
2023/02/24 07:43:51;;;;;;;7.47;1.03;;;3.40;99.90;;;;;;4901096;29;20203;-78
2023/02/24 07:46:26;;;;;;;8.57;1.23;;;3.40;99.90;;;;;;4901027;29;20306;-79
2023/02/24 07:48:54;;;;;;;6.50;1.30;;;3.40;99.90;;;;;;4900961;29;20619;-82
2023/02/24 07:51:22;;;;;;;5.17;1.20;;;3.50;99.90;;;;;;4895488;29;20191;-80
2023/02/24 07:53:51;;;;;;;4.33;1.20;;;3.50;99.90;;;;;;4882034;29;20658;-79
2023/02/24 07:56:25;;;;;;;6.60;1.03;;;3.40;99.90;;;;;;4892683;29;20399;-79
2023/02/24 07:58:58;;;;;;;3.67;0.83;;;3.50;99.90;;;;;;4881031;29;20224;-78
2023/02/24 08:01:26;;;;;;;8.80;1.20;;;3.50;99.90;;;;;;4892974;29;20238;-76
2023/02/24 08:03:55;;;;;;;3.30;1.07;;;3.50;99.90;;;;;;4899127;29;20177;-78
2023/02/24 08:06:36;;;;;;;9.53;1.10;;;3.50;99.90;;;;;;4891183;29;20458;-79
2023/02/24 08:09:18;;;;;;;4.33;1.13;;;3.50;99.90;;;;;;4881358;29;20191;-77
2023/02/24 08:11:52;;;;;;;7.80;1.40;;;3.50;99.90;;;;;;4897476;29;20531;-77
2023/02/24 08:14:34;;;;;;;6.13;1.30;;;3.50;99.90;;;;;;4883479;29;20194;-77
2023/02/24 08:17:04;;;;;;;7.03;0.97;;;3.50;99.90;;;;;;4881302;29;20196;-78
2023/02/24 08:19:32;;;;;;;4.97;1.10;;;3.50;99.90;;;;;;4881008;29;20287;-76
2023/02/24 08:22:23;;;;;;;4.23;1.00;;;3.50;99.90;;;;;;4880942;29;20187;-76
2023/02/24 08:24:54;;;;;;;6.43;1.10;;;3.60;99.90;;;;;;4880479;29;20204;-77
2023/02/24 08:27:24;;;;;;;8.17;1.00;;;3.50;99.90;;;;;;4894365;29;20191;-77
2023/02/24 08:29:58;;;;;;;3.30;0.87;;;3.50;99.90;;;;;;4895296;29;20210;-78
2023/02/24 08:32:32;;;;;;;6.90;0.93;;;3.50;99.90;;;;;;4881272;29;20188;-77
2023/02/24 08:35:02;;;;;;;9.97;1.20;;;3.50;99.90;;;;;;4884206;29;20591;-78
2023/02/24 08:37:39;;;;;;;2.50;0.90;;;3.50;99.90;;;;;;4894773;29;20191;-78
2023/02/24 08:40:36;;;;;;;5.73;1.43;;;3.50;99.90;;;;;;4895226;29;20203;-78
2023/02/24 08:43:16;;;;;;;5.70;0.97;;;3.50;99.90;;;;;;4892078;29;20774;-77
2023/02/24 08:46:04;;;;;;;4.50;1.10;;;3.60;99.90;;;;;;4887400;29;20187;-79
2023/02/24 08:48:36;;;;;;;6.13;0.90;;;3.50;99.90;;;;;;4864236;29;20183;-78
2023/02/24 08:51:21;;;;;;;5.27;1.10;;;3.50;99.90;;;;;;4880486;29;20172;-78
2023/02/24 08:53:52;;;;;;;9.47;1.00;;;3.60;99.90;;;;;;4898978;29;20179;-78
2023/02/24 08:56:23;;;;;;;3.47;1.13;;;3.60;99.90;;;;;;4885361;29;20195;-77
2023/02/24 08:58:55;;;;;;;5.20;1.00;;;3.60;99.90;;;;;;4884683;29;20220;-79
2023/02/24 09:01:36;;;;;;;7.33;1.00;;;3.60;99.90;;;;;;4880050;29;20524;-78
2023/02/24 09:04:08;;;;;;;4.50;0.90;;;3.60;99.90;;;;;;4880548;29;20243;-79
2023/02/24 09:06:36;;;;;;;3.33;1.13;;;3.60;99.90;;;;;;4880675;29;20196;-80
2023/02/24 09:09:17;;;;;;;4.33;1.10;;;3.60;99.90;;;;;;4879882;29;20180;-77
2023/02/24 09:11:58;;;;;;;8.93;1.47;;;3.60;99.90;;;;;;4884493;29;20238;-79
2023/02/24 09:14:37;;;;;;;4.73;0.90;;;3.60;99.90;;;;;;4899521;29;20635;-77
2023/02/24 09:17:09;;;;;;;8.73;1.50;;;3.60;99.90;;;;;;4894385;29;20190;-79
2023/02/24 09:22:30;;;;;;;6.03;1.20;;;3.50;99.90;;;;;;4880688;29;20522;-78
2023/02/24 09:25:20;;;;;;;4.03;1.20;;;3.50;99.90;;;;;;4879143;29;20187;-78
2023/02/24 09:27:51;;;;;;;8.17;1.23;;;3.40;99.90;;;;;;4908521;29;20199;-78
2023/02/24 09:30:35;;;;;;;5.17;1.27;;;3.40;99.90;;;;;;4893977;29;20275;-78
2023/02/24 09:33:23;;;;;;;5.23;1.20;;;3.30;99.90;;;;;;4879282;29;20184;-77
2023/02/24 09:35:50;;;;;;;8.17;1.70;;;3.30;99.90;;;;;;4879136;29;20527;-78
2023/02/24 09:38:18;;;;;;;7.00;1.30;;;3.30;99.90;;;;;;4878788;29;20242;-79
2023/02/24 09:40:48;;;;;;;12.47;1.90;;;3.30;99.90;;;;;;4880353;29;20548;-79
2023/02/24 09:43:26;;;;;;;8.00;1.87;;;3.10;99.90;;;;;;4879092;29;20195;-78
2023/02/24 09:46:00;;;;;;;8.97;1.30;;;3.10;99.90;;;;;;4879026;29;20175;-77
2023/02/24 09:48:54;;;;;;;7.37;1.30;;;3.00;99.90;;;;;;4880052;29;20558;-77
2023/02/24 09:51:21;;;;;;;7.20;1.60;;;3.00;99.90;;;;;;4879921;29;20184;-78
2023/02/24 09:53:52;;;;;;;6.30;1.20;;;2.90;99.90;;;;;;4891387;29;20195;-78
2023/02/24 09:56:42;;;;;;;10.37;1.63;;;2.90;99.90;;;;;;4897487;29;20179;-78
2023/02/24 09:59:33;;;;;;;5.57;1.70;;;2.90;99.90;;;;;;4898688;29;20210;-78
2023/02/24 10:02:18;;;;;;;5.27;1.30;;;2.90;99.90;;;;;;4898567;29;20250;-79
2023/02/24 10:04:53;;;;;;;5.30;1.40;;;2.90;99.90;;;;;;4896370;29;20211;-78
2023/02/24 10:07:37;;;;;;;9.47;1.80;;;2.80;99.90;;;;;;4896719;29;20529;-80
2023/02/24 10:10:29;;;;;;;6.30;1.30;;;2.80;99.90;;;;;;4896911;29;20614;-78
2023/02/24 10:13:00;;;;;;;8.50;1.67;;;2.80;99.90;;;;;;4898319;29;20163;-79
2023/02/24 10:15:43;;;;;;;6.93;1.67;;;2.80;99.90;;;;;;4898600;29;20511;-78
2023/02/24 10:18:28;;;;;;;8.07;1.63;;;2.80;99.90;;;;;;4898343;29;20587;-80
2023/02/24 10:21:29;;;;;;;4.13;1.57;;;2.80;99.90;;;;;;4897094;29;20231;-78
2023/02/24 10:24:04;;;;;;;5.50;1.50;;;2.90;99.90;;;;;;4896148;29;20597;-78
2023/02/24 10:26:51;;;;;;;4.27;1.13;;;2.90;99.90;;;;;;4897643;29;20178;-80
2023/02/24 10:30:03;;;;;;;9.33;1.60;;;2.80;99.90;;;;;;4898404;29;20179;-80
2023/02/24 10:32:45;;;;;;;6.00;1.30;;;2.90;99.90;;;;;;4896385;29;20255;-79
2023/02/24 10:35:32;;;;;;;9.07;2.00;;;3.00;99.90;;;;;;4897748;29;20207;-79
2023/02/24 10:38:07;;;;;;;6.53;1.53;;;3.00;99.90;;;;;;4896329;29;20573;-79
2023/02/24 10:40:45;;;;;;;12.60;1.83;;;2.90;99.90;;;;;;4895841;29;20241;-77
2023/02/24 10:43:18;;;;;;;7.47;1.70;;;2.90;99.90;;;;;;4891329;29;20194;-78
2023/02/24 10:45:45;;;;;;;6.80;2.10;;;2.90;99.90;;;;;;4897625;29;20219;-80
2023/02/24 10:48:23;;;;;;;7.53;1.60;;;2.80;99.90;;;;;;4878664;29;20282;-80
2023/02/24 10:50:54;;;;;;;11.10;2.40;;;2.80;99.90;;;;;;4895818;29;20187;-81
2023/02/24 10:53:36;;;;;;;6.67;2.40;;;2.90;99.90;;;;;;4890900;29;20188;-79
2023/02/24 10:59:57;;;;;;;12.00;3.13;;;2.80;99.90;;;;;;4889268;29;20338;-81
2023/02/24 11:02:28;;;;;;;7.03;2.10;;;2.80;99.90;;;;;;4894287;29;20206;-80
2023/02/24 11:07:52;;;;;;;7.53;2.10;;;2.80;99.90;;;;;;4898021;29;20164;-81
2023/02/24 11:10:41;;;;;;;8.23;2.00;;;2.80;99.90;;;;;;4890396;29;20195;-79
2023/02/24 11:18:50;;;;;;;11.07;2.30;;;2.80;99.90;;;;;;4879476;29;20295;-81
2023/02/24 11:21:16;;;;;;;7.13;2.47;;;2.80;99.90;;;;;;4877682;29;20184;-80
2023/02/24 11:23:50;;;;;;;5.97;2.30;;;2.70;99.90;;;;;;4884395;29;20283;-80
2023/02/24 11:26:43;;;;;;;6.87;2.20;;;2.70;99.90;;;;;;4886993;29;20191;-79
2023/02/24 11:29:27;;;;;;;3.47;1.93;;;2.70;99.90;;;;;;4879615;29;20212;-81
2023/02/24 11:32:15;;;;;;;7.03;2.40;;;2.70;99.90;;;;;;4884183;29;20227;-82
2023/02/24 11:35:04;;;;;;;8.73;2.13;;;2.70;99.90;;;;;;4889291;29;20192;-82
2023/02/24 11:38:12;;;;;;;7.27;1.83;;;2.70;99.90;;;;;;4898165;29;20595;-82
2023/02/24 11:40:43;;;;;;;7.67;1.97;;;2.70;99.90;;;;;;4876784;29;20546;-79
2023/02/24 11:43:19;;;;;;;5.67;1.50;;;2.70;99.90;;;;;;4880944;29;20164;-80
2023/02/24 11:45:49;;;;;;;5.80;2.27;;;2.70;99.90;;;;;;4894975;29;20206;-81
2023/02/24 11:48:24;;;;;;;4.47;2.07;;;2.70;99.90;;;;;;4882296;29;20297;-80
2023/02/24 11:50:56;;;;;;;7.20;2.03;;;2.70;99.90;;;;;;4880772;29;20196;-80
2023/02/24 11:53:46;;;;;;;6.53;2.23;;;2.70;99.90;;;;;;4890344;29;20616;-79
2023/02/24 11:56:42;;;;;;;7.37;2.10;;;2.60;99.90;;;;;;4898413;29;20646;-82
2023/02/24 11:59:19;;;;;;;6.23;2.23;;;2.60;99.90;;;;;;4898397;29;20229;-81
2023/02/24 12:02:13;;;;;;;4.60;2.10;;;2.70;99.90;;;;;;4894125;29;20199;-82
2023/02/24 12:04:57;;;;;;;5.13;2.27;;;2.70;99.90;;;;;;4883806;29;20282;-81
2023/02/24 12:07:37;;;;;;;5.03;2.03;;;2.70;99.90;;;;;;4895642;29;20279;-81
2023/02/24 12:10:09;;;;;;;4.73;2.10;;;2.70;99.90;;;;;;4880002;29;20224;-79
2023/02/24 12:12:41;;;;;;;5.33;1.93;;;2.70;99.90;;;;;;4880061;29;20192;-81
2023/02/24 12:15:23;;;;;;;4.60;1.73;;;2.70;99.90;;;;;;4898703;29;20187;-80
2023/02/24 12:18:15;;;;;;;7.60;2.10;;;2.70;99.90;;;;;;4899647;29;20702;-80
2023/02/24 12:20:49;;;;;;;5.73;1.80;;;2.80;99.90;;;;;;4883760;29;20208;-79
2023/02/24 12:23:30;;;;;;;8.63;2.27;;;2.70;99.90;;;;;;4898744;29;20206;-79
2023/02/24 12:26:12;;;;;;;15.20;2.07;;;2.70;99.90;;;;;;4892379;29;20657;-80
2023/02/24 12:29:17;;;;;;;7.70;2.07;;;2.70;99.90;;;;;;4887751;29;20223;-79
2023/02/24 12:32:04;;;;;;;5.23;2.00;;;2.80;99.90;;;;;;4892163;29;20187;-81
2023/02/24 12:34:33;;;;;;;12.67;2.17;;;2.70;99.90;;;;;;4889872;29;20202;-81
2023/02/24 12:37:25;;;;;;;4.80;2.20;;;2.70;99.90;;;;;;4896339;29;20183;-81
2023/02/24 12:40:04;;;;;;;2.20;1.90;;;2.70;99.90;;;;;;4894383;29;20195;-81
2023/02/24 12:42:55;;;;;;;3.50;2.13;;;2.70;99.90;;;;;;4880073;29;20188;-80
2023/02/24 12:45:33;;;;;;;5.50;2.80;;;2.70;99.90;;;;;;4880420;29;20173;-81
2023/02/24 12:48:10;;;;;;;2.83;2.03;;;2.70;99.90;;;;;;4880119;29;20619;-81
2023/02/24 12:50:59;;;;;;;4.00;2.07;;;2.70;99.90;;;;;;4887315;29;20270;-82
2023/02/24 12:53:56;;;;;;;3.77;2.20;;;2.80;99.90;;;;;;4899562;29;20238;-83
2023/02/24 12:56:26;;;;;;;8.40;2.57;;;2.70;99.90;;;;;;4899717;29;20232;-80
2023/02/24 12:58:58;;;;;;;6.27;2.47;;;2.80;99.90;;;;;;4898031;29;20305;-81
2023/02/24 13:01:35;;;;;;;11.37;2.10;;;2.80;99.90;;;;;;4888459;29;20662;-82
2023/02/24 13:04:41;;;;;;;4.23;2.27;;;2.70;99.90;;;;;;4879667;29;20302;-83
2023/02/24 13:07:38;;;;;;;3.03;2.10;;;2.70;99.90;;;;;;4898676;29;20238;-80
2023/02/24 13:10:41;;;;;;;3.90;2.20;;;2.70;99.90;;;;;;4894017;29;20185;-80
2023/02/24 13:13:55;;;;;;;5.07;2.63;;;2.70;99.90;;;;;;4887433;29;20190;-80
2023/02/24 13:16:29;;;;;;;6.87;2.73;;;2.70;99.90;;;;;;4868882;29;20539;-82
2023/02/24 13:19:14;;;;;;;3.83;2.63;;;2.70;99.90;;;;;;4882151;29;20222;-81
2023/02/24 13:21:40;;;;;;;3.37;2.30;;;2.70;99.90;;;;;;4880651;29;20180;-80
2023/02/24 13:24:21;;;;;;;3.13;2.53;;;2.60;99.90;;;;;;4890399;29;20243;-83
2023/02/24 13:26:46;;;;;;;3.97;2.70;;;2.60;99.90;;;;;;4865425;29;20178;-79
2023/02/24 13:29:14;;;;;;;3.93;2.70;;;2.60;99.90;;;;;;4893765;29;20239;-80
2023/02/24 13:31:48;;;;;;;4.80;2.87;;;2.60;99.90;;;;;;4891059;29;20631;-81
2023/02/24 13:34:45;;;;;;;3.80;2.87;;;2.70;99.90;;;;;;4908220;29;20213;-80
2023/02/24 13:37:11;;;;;;;4.17;3.27;;;2.70;99.90;;;;;;4888015;29;20202;-79
2023/02/24 13:39:43;;;;;;;5.23;3.17;;;2.80;99.90;;;;;;4894429;29;20227;-80
2023/02/24 13:42:29;;;;;;;4.93;3.50;;;2.80;99.90;;;;;;4891097;29;20247;-81
2023/02/24 13:45:18;;;;;;;4.53;3.40;;;2.80;99.90;;;;;;4892705;29;20254;-80
2023/02/24 13:47:46;;;;;;;3.47;3.00;;;2.80;99.90;;;;;;4888966;29;20243;-82
2023/02/24 13:50:24;;;;;;;4.80;4.00;;;2.80;99.90;;;;;;4890799;29;20187;-80
2023/02/24 13:53:27;;;;;;;3.73;3.33;;;2.80;99.90;;;;;;4903771;29;20201;-80
2023/02/24 13:56:14;;;;;;;3.93;3.33;;;2.80;99.90;;;;;;4893106;29;20202;-80